createdAt,value
2018-11-26T00:00:36.576Z,19.67
2018-11-26T00:03:08.472Z,18.80
2018-11-26T00:05:37.784Z,18.40
2018-11-26T00:08:08.150Z,16.20
2018-11-26T00:10:48.015Z,18.90
2018-11-26T00:13:16.769Z,18.00
2018-11-26T00:15:45.534Z,18.27
2018-11-26T00:18:14.097Z,17.23
2018-11-26T00:20:42.631Z,17.53
2018-11-26T00:23:11.181Z,16.87
2018-11-26T00:25:39.968Z,19.17
2018-11-26T00:28:09.686Z,19.20
2018-11-26T00:30:38.301Z,17.90
2018-11-26T00:33:07.021Z,18.33
2018-11-26T00:35:35.696Z,18.70
2018-11-26T00:38:04.772Z,17.93
2018-11-26T00:40:33.990Z,18.80
2018-11-26T00:43:03.383Z,17.57
2018-11-26T00:45:31.990Z,19.03
2018-11-26T00:48:00.555Z,19.50
2018-11-26T00:50:29.712Z,18.13
2018-11-26T00:52:58.288Z,17.93
2018-11-26T00:55:26.772Z,18.10
2018-11-26T00:57:55.402Z,18.50
2018-11-26T01:00:23.918Z,15.43
2018-11-26T01:02:52.825Z,16.87
2018-11-26T01:05:31.955Z,17.47
2018-11-26T01:08:00.535Z,16.97
2018-11-26T01:10:29.225Z,17.03
2018-11-26T01:12:57.702Z,18.23
2018-11-26T01:15:26.416Z,17.57
2018-11-26T01:17:55.059Z,17.20
2018-11-26T01:20:23.994Z,17.13
2018-11-26T01:22:53.462Z,16.87
2018-11-26T01:25:22.875Z,17.13
2018-11-26T01:27:51.486Z,17.57
2018-11-26T01:30:20.039Z,17.50
2018-11-26T01:32:48.764Z,17.40
2018-11-26T01:35:17.314Z,17.13
2018-11-26T01:37:45.794Z,16.80
2018-11-26T01:40:18.962Z,12.93
2018-11-26T01:42:47.525Z,16.53
2018-11-26T01:45:16.117Z,16.90
2018-11-26T01:47:45.331Z,16.90
2018-11-26T01:50:13.903Z,17.20
2018-11-26T01:52:42.470Z,16.63
2018-11-26T01:55:11.350Z,15.93
2018-11-26T01:57:39.898Z,15.53
2018-11-26T02:00:25.193Z,14.97
2018-11-26T02:02:53.845Z,15.90
2018-11-26T02:05:22.992Z,14.90
2018-11-26T02:07:51.876Z,14.93
2018-11-26T02:10:20.785Z,14.60
2018-11-26T02:12:49.369Z,14.57
2018-11-26T02:15:28.929Z,14.40
2018-11-26T02:17:57.351Z,14.57
2018-11-26T02:20:26.058Z,13.40
2018-11-26T02:22:54.677Z,13.83
2018-11-26T02:25:23.159Z,13.10
2018-11-26T02:27:51.862Z,12.57
2018-11-26T02:30:20.400Z,12.73
2018-11-26T02:32:48.872Z,12.30
2018-11-26T02:35:17.403Z,13.03
2018-11-26T02:37:50.323Z,12.97
2018-11-26T02:40:35.413Z,12.60
2018-11-26T02:43:03.994Z,12.03
2018-11-26T02:45:33.225Z,10.90
2018-11-26T02:48:01.839Z,10.73
2018-11-26T02:50:30.445Z,10.63
2018-11-26T02:52:59.017Z,10.67
2018-11-26T02:55:27.587Z,10.80
2018-11-26T02:57:56.157Z,10.97
2018-11-26T03:00:25.284Z,9.97
2018-11-26T03:02:53.852Z,11.17
2018-11-26T03:05:26.931Z,9.70
2018-11-26T03:07:55.511Z,10.53
2018-11-26T03:10:24.178Z,10.87
2018-11-26T03:12:52.684Z,10.33
2018-11-26T03:15:21.212Z,9.67
2018-11-26T03:17:49.756Z,11.60
2018-11-26T03:20:18.240Z,11.43
2018-11-26T03:22:46.685Z,11.73
2018-11-26T03:25:15.211Z,10.70
2018-11-26T03:27:43.703Z,11.70
2018-11-26T03:30:15.460Z,12.67
2018-11-26T03:32:43.924Z,12.73
2018-11-26T03:35:12.463Z,13.00
2018-11-26T03:37:41.064Z,13.10
2018-11-26T03:40:11.548Z,12.87
2018-11-26T03:42:40.084Z,12.53
2018-11-26T03:45:12.024Z,12.97
2018-11-26T03:47:40.579Z,12.93
2018-11-26T03:50:09.767Z,13.57
2018-11-26T03:52:38.238Z,13.90
2018-11-26T03:55:08.183Z,15.27
2018-11-26T03:57:36.674Z,15.37
2018-11-26T04:00:08.262Z,14.63
2018-11-26T04:02:36.843Z,16.47
2018-11-26T04:05:05.997Z,16.57
2018-11-26T04:07:41.307Z,15.50
2018-11-26T04:10:10.786Z,15.70
2018-11-26T04:12:39.401Z,15.70
2018-11-26T04:15:11.331Z,16.57
2018-11-26T04:17:39.828Z,15.23
2018-11-26T04:20:09.008Z,15.07
2018-11-26T04:22:37.573Z,16.27
2018-11-26T04:25:07.639Z,15.77
2018-11-26T04:27:36.191Z,15.97
2018-11-26T04:30:05.523Z,16.20
2018-11-26T04:32:34.003Z,16.60
2018-11-26T04:35:02.583Z,15.80
2018-11-26T04:37:31.083Z,15.80
2018-11-26T04:39:59.620Z,16.13
2018-11-26T04:42:28.547Z,16.77
2018-11-26T04:44:57.057Z,16.67
2018-11-26T04:47:25.494Z,16.07
2018-11-26T04:49:53.973Z,16.43
2018-11-26T04:52:22.534Z,17.13
2018-11-26T04:54:51.029Z,17.33
2018-11-26T04:57:19.641Z,16.07
2018-11-26T04:59:48.127Z,14.07
2018-11-26T05:02:16.644Z,15.70
2018-11-26T05:04:45.347Z,13.53
2018-11-26T05:07:13.876Z,15.77
2018-11-26T05:09:42.586Z,16.13
2018-11-26T05:12:11.103Z,13.83
2018-11-26T05:14:39.586Z,15.23
2018-11-26T05:17:08.185Z,13.47
2018-11-26T05:19:38.017Z,15.90
2018-11-26T05:22:06.499Z,17.37
2018-11-26T05:24:35.101Z,15.80
2018-11-26T05:27:03.601Z,12.57
2018-11-26T05:29:32.078Z,15.27
2018-11-26T05:32:00.566Z,16.00
2018-11-26T05:34:29.274Z,13.37
2018-11-26T05:36:57.824Z,15.83
2018-11-26T05:39:27.558Z,16.80
2018-11-26T05:41:56.978Z,15.03
2018-11-26T05:44:25.418Z,16.87
2018-11-26T05:46:54.652Z,15.53
2018-11-26T05:49:23.097Z,14.20
2018-11-26T05:51:51.663Z,16.33
2018-11-26T05:54:20.275Z,16.17
2018-11-26T05:56:49.303Z,16.77
2018-11-26T05:59:17.800Z,16.77
2018-11-26T06:01:47.088Z,16.57
2018-11-26T06:04:15.570Z,15.40
2018-11-26T06:06:44.234Z,16.80
2018-11-26T06:09:12.869Z,17.17
2018-11-26T06:11:44.620Z,15.87
2018-11-26T06:14:13.100Z,17.73
2018-11-26T06:16:41.628Z,17.40
2018-11-26T06:19:10.703Z,16.00
2018-11-26T06:21:39.152Z,16.53
2018-11-26T06:24:07.828Z,17.70
2018-11-26T06:26:36.348Z,18.57
2018-11-26T06:29:04.903Z,18.30
2018-11-26T06:31:33.473Z,19.03
2018-11-26T06:34:01.991Z,17.80
2018-11-26T06:36:31.182Z,17.13
2018-11-26T06:38:59.728Z,18.80
2018-11-26T06:41:28.190Z,18.23
2018-11-26T06:43:56.786Z,18.40
2018-11-26T06:46:25.276Z,18.27
2018-11-26T06:48:53.906Z,18.00
2018-11-26T06:51:22.465Z,15.50
2018-11-26T06:53:51.038Z,18.00
2018-11-26T06:56:19.518Z,19.70
2018-11-26T06:58:47.999Z,19.10
2018-11-26T07:01:16.534Z,19.33
2018-11-26T07:03:45.030Z,14.53
2018-11-26T07:06:13.481Z,19.57
2018-11-26T07:08:41.933Z,18.33
2018-11-26T07:11:10.424Z,18.27
2018-11-26T07:13:38.996Z,18.43
2018-11-26T07:16:07.490Z,18.30
2018-11-26T07:18:36.087Z,17.20
2018-11-26T07:21:05.206Z,19.80
2018-11-26T07:23:33.662Z,19.13
2018-11-26T07:26:02.494Z,17.37
2018-11-26T07:28:31.018Z,17.00
2018-11-26T07:30:59.504Z,17.70
2018-11-26T07:33:28.606Z,18.53
2018-11-26T07:35:57.772Z,18.00
2018-11-26T07:38:26.257Z,16.40
2018-11-26T07:40:54.726Z,18.40
2018-11-26T07:43:23.350Z,18.40
2018-11-26T07:45:52.973Z,18.07
2018-11-26T07:48:21.411Z,17.77
2018-11-26T07:50:49.863Z,17.33
2018-11-26T07:53:18.364Z,15.40
2018-11-26T07:55:46.840Z,13.77
2018-11-26T07:58:15.365Z,18.07
2018-11-26T08:00:43.875Z,18.13
2018-11-26T08:03:13.558Z,18.23
2018-11-26T08:05:42.228Z,18.03
2018-11-26T08:08:11.799Z,17.13
2018-11-26T08:10:40.352Z,17.73
2018-11-26T08:13:08.808Z,18.30
2018-11-26T08:15:37.241Z,18.13
2018-11-26T08:18:05.888Z,18.23
2018-11-26T08:20:34.492Z,14.13
2018-11-26T08:23:03.056Z,17.90
2018-11-26T08:25:31.533Z,17.57
2018-11-26T08:27:59.992Z,16.37
2018-11-26T08:30:28.612Z,15.93
2018-11-26T08:33:00.276Z,18.07
2018-11-26T08:35:29.188Z,17.27
2018-11-26T08:38:03.715Z,17.87
2018-11-26T08:40:37.590Z,18.63
2018-11-26T08:43:07.056Z,18.73
2018-11-26T08:45:42.727Z,15.13
2018-11-26T08:48:30.873Z,19.00
2018-11-26T08:51:01.323Z,17.63
2018-11-26T08:53:29.960Z,17.77
2018-11-26T08:55:58.474Z,18.03
2018-11-26T08:58:26.963Z,17.57
2018-11-26T09:01:00.808Z,18.07
2018-11-26T09:03:40.457Z,17.77
2018-11-26T09:06:08.975Z,17.93
2018-11-26T09:08:37.830Z,18.50
2018-11-26T09:11:08.229Z,17.97
2018-11-26T09:13:36.828Z,19.13
2018-11-26T09:16:05.511Z,18.60
2018-11-26T09:18:34.031Z,18.40
2018-11-26T09:21:02.677Z,17.17
2018-11-26T09:23:31.133Z,19.23
2018-11-26T09:26:00.438Z,17.00
2018-11-26T09:28:30.769Z,16.03
2018-11-26T09:30:59.316Z,16.97
2018-11-26T09:33:27.818Z,18.70
2018-11-26T09:35:56.741Z,20.27
2018-11-26T09:38:25.297Z,19.40
2018-11-26T09:40:53.815Z,19.13
2018-11-26T09:43:23.229Z,18.57
2018-11-26T09:45:51.671Z,18.93
2018-11-26T09:48:20.892Z,19.27
2018-11-26T09:50:49.372Z,19.63
2018-11-26T09:53:18.036Z,18.77
2018-11-26T09:55:46.622Z,17.73
2018-11-26T09:58:18.890Z,18.73
2018-11-26T10:00:47.306Z,17.57
2018-11-26T10:03:15.908Z,18.97
2018-11-26T10:05:44.404Z,16.43
2018-11-26T10:08:13.485Z,18.00
2018-11-26T10:10:42.714Z,17.77
2018-11-26T10:13:11.813Z,17.93
2018-11-26T10:15:40.386Z,17.80
2018-11-26T10:18:08.850Z,17.77
2018-11-26T10:20:37.427Z,18.67
2018-11-26T10:23:07.846Z,18.63
2018-11-26T10:25:36.354Z,16.67
2018-11-26T10:28:04.925Z,18.43
2018-11-26T10:30:34.140Z,17.00
2018-11-26T10:33:02.718Z,17.97
2018-11-26T10:35:31.284Z,18.83
2018-11-26T10:37:59.733Z,18.10
2018-11-26T10:40:28.336Z,18.10
2018-11-26T10:42:56.927Z,17.77
2018-11-26T10:45:25.982Z,18.93
2018-11-26T10:47:54.515Z,18.53
2018-11-26T10:50:24.776Z,17.23
2018-11-26T10:52:54.477Z,18.63
2018-11-26T10:55:24.362Z,19.57
2018-11-26T10:57:52.964Z,18.93
2018-11-26T11:00:27.351Z,20.43
2018-11-26T11:02:55.941Z,19.77
2018-11-26T11:05:25.078Z,18.83
2018-11-26T11:07:53.677Z,19.30
2018-11-26T11:10:25.165Z,18.33
2018-11-26T11:12:53.740Z,18.67
2018-11-26T11:15:22.882Z,20.20
2018-11-26T11:17:51.629Z,19.67
2018-11-26T11:20:22.927Z,20.53
2018-11-26T11:22:51.943Z,19.73
2018-11-26T11:25:20.895Z,19.10
2018-11-26T11:27:49.564Z,19.30
2018-11-26T11:30:21.918Z,20.23
2018-11-26T11:32:50.576Z,19.07
2018-11-26T11:35:19.321Z,19.67
2018-11-26T11:37:48.523Z,18.57
2018-11-26T11:40:20.680Z,19.43
2018-11-26T11:42:49.222Z,20.17
2018-11-26T11:45:17.916Z,20.27
2018-11-26T11:47:46.559Z,19.80
2018-11-26T11:50:16.067Z,19.60
2018-11-26T11:52:44.816Z,20.83
2018-11-26T11:55:15.018Z,20.60
2018-11-26T11:57:43.550Z,20.33
2018-11-26T12:00:23.107Z,20.57
2018-11-26T12:02:52.951Z,20.80
2018-11-26T12:05:21.461Z,23.60
2018-11-26T12:07:50.753Z,23.03
2018-11-26T12:10:20.072Z,23.80
2018-11-26T12:12:49.112Z,24.90
2018-11-26T12:15:17.844Z,24.60
2018-11-26T12:17:47.660Z,23.47
2018-11-26T12:20:16.391Z,25.70
2018-11-26T12:22:46.047Z,25.47
2018-11-26T12:25:17.622Z,24.80
2018-11-26T12:27:46.067Z,23.37
2018-11-26T12:30:21.508Z,24.27
2018-11-26T12:32:50.309Z,25.73
2018-11-26T12:35:18.944Z,25.50
2018-11-26T12:37:47.617Z,25.87
2018-11-26T12:40:18.232Z,26.50
2018-11-26T12:42:46.801Z,26.23
2018-11-26T12:45:17.409Z,24.60
2018-11-26T12:47:45.985Z,23.27
2018-11-26T12:50:14.486Z,26.47
2018-11-26T12:52:43.752Z,24.33
2018-11-26T12:55:14.914Z,26.43
2018-11-26T12:57:44.157Z,26.57
2018-11-26T13:00:13.902Z,26.90
2018-11-26T13:02:42.515Z,24.57
2018-11-26T13:05:19.578Z,24.80
2018-11-26T13:07:48.304Z,24.10
2018-11-26T13:10:19.047Z,24.27
2018-11-26T13:12:48.103Z,24.13
2018-11-26T13:15:17.590Z,23.20
2018-11-26T13:17:46.259Z,24.87
2018-11-26T13:20:17.876Z,25.30
2018-11-26T13:22:46.524Z,25.47
2018-11-26T13:25:16.152Z,24.40
2018-11-26T13:27:48.125Z,26.33
2018-11-26T13:30:22.733Z,24.47
2018-11-26T13:32:53.630Z,25.07
2018-11-26T13:35:22.692Z,26.13
2018-11-26T13:37:51.182Z,24.37
2018-11-26T13:40:20.187Z,23.10
2018-11-26T13:42:48.908Z,22.83
2018-11-26T13:45:29.390Z,23.43
2018-11-26T13:47:57.834Z,25.33
2018-11-26T13:50:29.555Z,24.63
2018-11-26T13:52:58.088Z,24.60
2018-11-26T13:55:26.933Z,24.60
2018-11-26T13:57:55.446Z,22.60
2018-11-26T14:00:23.940Z,22.93
2018-11-26T14:02:52.591Z,23.93
2018-11-26T14:05:21.158Z,24.73
2018-11-26T14:07:49.628Z,23.47
2018-11-26T14:10:19.531Z,23.77
2018-11-26T14:12:49.807Z,22.87
2018-11-26T14:15:19.035Z,23.50
2018-11-26T14:17:47.597Z,22.00
2018-11-26T14:20:16.691Z,22.63
2018-11-26T14:22:45.203Z,22.90
2018-11-26T14:25:14.883Z,24.33
2018-11-26T14:27:44.064Z,20.67
2018-11-26T14:30:23.510Z,18.90
2018-11-26T14:32:52.273Z,17.13
2018-11-26T14:35:21.753Z,18.20
2018-11-26T14:37:59.721Z,16.27
2018-11-26T14:40:31.653Z,17.87
2018-11-26T14:43:00.188Z,17.73
2018-11-26T14:45:28.867Z,16.83
2018-11-26T14:47:57.334Z,17.67
2018-11-26T14:50:26.675Z,19.33
2018-11-26T14:52:55.185Z,17.53
2018-11-26T14:55:27.951Z,18.20
2018-11-26T14:57:56.503Z,18.00
2018-11-26T15:00:25.705Z,17.43
2018-11-26T15:02:54.904Z,17.33
2018-11-26T15:05:23.395Z,19.13
2018-11-26T15:07:52.084Z,17.23
2018-11-26T15:10:21.849Z,18.50
2018-11-26T15:12:50.485Z,18.07
2018-11-26T15:15:21.231Z,17.53
2018-11-26T15:17:49.706Z,18.07
2018-11-26T15:20:22.198Z,17.30
2018-11-26T15:22:51.462Z,17.57
2018-11-26T15:25:21.798Z,18.07
2018-11-26T15:27:51.092Z,18.07
2018-11-26T15:30:21.159Z,17.13
2018-11-26T15:32:49.782Z,19.50
2018-11-26T15:35:19.231Z,19.57
2018-11-26T15:37:47.806Z,18.37
2018-11-26T15:40:17.308Z,18.40
2018-11-26T15:42:46.418Z,20.20
2018-11-26T15:45:23.557Z,19.20
2018-11-26T15:47:53.107Z,19.03
2018-11-26T15:50:21.692Z,17.47
2018-11-26T15:52:50.305Z,16.93
2018-11-26T15:55:19.760Z,19.33
2018-11-26T15:57:48.362Z,17.73
2018-11-26T16:00:26.253Z,16.77
2018-11-26T16:02:54.956Z,17.40
2018-11-26T16:05:25.573Z,17.47
2018-11-26T16:07:55.109Z,18.43
2018-11-26T16:10:23.628Z,17.90
2018-11-26T16:12:54.635Z,18.70
2018-11-26T16:15:24.586Z,17.53
2018-11-26T16:17:53.960Z,15.97
2018-11-26T16:20:25.491Z,16.93
2018-11-26T16:22:54.087Z,17.33
2018-11-26T16:25:23.444Z,17.70
2018-11-26T16:27:51.991Z,17.17
2018-11-26T16:30:20.568Z,16.43
2018-11-26T16:32:53.334Z,16.23
2018-11-26T16:35:28.370Z,15.10
2018-11-26T16:37:57.076Z,17.27
2018-11-26T16:40:25.631Z,17.07
2018-11-26T16:42:54.176Z,15.67
2018-11-26T16:45:24.608Z,15.20
2018-11-26T16:47:54.128Z,18.37
2018-11-26T16:50:23.882Z,18.37
2018-11-26T16:52:52.384Z,18.13
2018-11-26T16:55:20.894Z,17.90
2018-11-26T16:57:49.488Z,17.50
2018-11-26T17:00:19.772Z,17.57
2018-11-26T17:02:49.288Z,17.80
2018-11-26T17:05:20.160Z,17.03
2018-11-26T17:07:48.640Z,17.47
2018-11-26T17:10:17.760Z,18.37
2018-11-26T17:12:46.320Z,16.87
2018-11-26T17:15:17.535Z,18.13
2018-11-26T17:17:46.199Z,18.53
2018-11-26T17:20:15.564Z,19.27
2018-11-26T17:22:44.241Z,17.30
2018-11-26T17:25:13.815Z,17.57
2018-11-26T17:27:42.806Z,18.23
2018-11-26T17:30:18.019Z,17.97
2018-11-26T17:32:47.335Z,18.73
2018-11-26T17:35:16.400Z,18.47
2018-11-26T17:37:45.194Z,18.53
2018-11-26T17:40:18.731Z,18.50
2018-11-26T17:42:47.212Z,19.93
2018-11-26T17:45:16.302Z,19.80
2018-11-26T17:47:49.371Z,21.50
2018-11-26T17:50:23.339Z,20.27
2018-11-26T17:52:52.396Z,20.20
2018-11-26T17:55:21.275Z,19.63
2018-11-26T17:57:49.915Z,22.03
2018-11-26T18:00:20.878Z,20.47
2018-11-26T18:02:49.453Z,13.03
2018-11-26T18:05:20.160Z,23.90
2018-11-26T18:07:50.717Z,22.53
2018-11-26T18:10:20.190Z,21.57
2018-11-26T18:12:48.857Z,21.40
2018-11-26T18:15:17.444Z,21.37
2018-11-26T18:17:46.704Z,20.47
2018-11-26T18:20:18.890Z,20.87
2018-11-26T18:22:49.267Z,19.50
2018-11-26T18:25:18.221Z,17.50
2018-11-26T18:27:50.046Z,21.53
2018-11-26T18:30:20.228Z,21.47
2018-11-26T18:32:48.870Z,20.50
2018-11-26T18:35:17.437Z,20.80
2018-11-26T18:37:45.936Z,19.30
2018-11-26T18:40:16.271Z,20.03
2018-11-26T18:42:44.755Z,18.30
2018-11-26T18:45:15.245Z,18.97
2018-11-26T18:47:44.045Z,20.83
2018-11-26T18:50:14.847Z,21.37
2018-11-26T18:52:43.799Z,19.60
2018-11-26T18:55:12.504Z,17.20
2018-11-26T18:57:42.189Z,12.97
2018-11-26T19:00:18.965Z,19.70
2018-11-26T19:02:48.534Z,20.83
2018-11-26T19:05:18.391Z,19.57
2018-11-26T19:07:46.941Z,19.17
2018-11-26T19:10:18.753Z,16.70
2018-11-26T19:12:49.156Z,20.40
2018-11-26T19:15:24.315Z,19.03
2018-11-26T19:17:54.460Z,20.33
2018-11-26T19:20:23.005Z,20.77
2018-11-26T19:22:51.540Z,20.13
2018-11-26T19:25:20.093Z,20.73
2018-11-26T19:27:48.616Z,21.03
2018-11-26T19:30:22.847Z,17.90
2018-11-26T19:32:46.634Z,20.37
2018-11-26T19:35:15.874Z,20.97
2018-11-26T19:37:44.321Z,14.03
2018-11-26T19:40:15.545Z,19.07
2018-11-26T19:42:45.348Z,21.90
2018-11-26T19:45:18.755Z,22.60
2018-11-26T19:47:47.345Z,18.70
2018-11-26T19:50:16.874Z,20.97
2018-11-26T19:52:46.213Z,19.03
2018-11-26T19:55:16.136Z,20.27
2018-11-26T19:57:44.617Z,21.60
2018-11-26T20:00:15.304Z,17.93
2018-11-26T20:02:44.866Z,21.97
2018-11-26T20:05:17.399Z,21.20
2018-11-26T20:07:46.739Z,21.47
2018-11-26T20:10:15.362Z,21.90
2018-11-26T20:12:43.916Z,19.60
2018-11-26T20:15:14.364Z,17.97
2018-11-26T20:17:43.237Z,19.87
2018-11-26T20:20:12.116Z,17.97
2018-11-26T20:22:40.631Z,22.70
2018-11-26T20:25:11.677Z,21.90
2018-11-26T20:27:40.319Z,19.03
2018-11-26T20:30:11.732Z,20.83
2018-11-26T20:32:40.889Z,18.13
2018-11-26T20:35:10.524Z,17.67
2018-11-26T20:37:39.811Z,18.23
2018-11-26T20:40:12.832Z,19.20
2018-11-26T20:42:43.505Z,22.37
2018-11-26T20:45:13.452Z,22.80
2018-11-26T20:47:41.927Z,23.07
2018-11-26T20:50:14.076Z,23.77
2018-11-26T20:52:42.923Z,23.30
2018-11-26T20:55:13.191Z,23.40
2018-11-26T20:57:41.713Z,21.90
2018-11-26T21:00:16.395Z,23.03
2018-11-26T21:02:45.798Z,21.67
2018-11-26T21:05:14.338Z,20.47
2018-11-26T21:07:42.836Z,20.47
2018-11-26T21:10:12.594Z,20.70
2018-11-26T21:12:41.132Z,21.73
2018-11-26T21:15:15.334Z,22.17
2018-11-26T21:17:45.286Z,21.80
2018-11-26T21:20:17.344Z,23.10
2018-11-26T21:22:45.991Z,23.27
2018-11-26T21:25:15.565Z,22.90
2018-11-26T21:27:44.062Z,18.30
2018-11-26T21:30:14.813Z,17.10
2018-11-26T21:32:43.432Z,22.07
2018-11-26T21:35:13.986Z,15.80
2018-11-26T21:37:43.578Z,15.13
2018-11-26T21:40:13.155Z,17.07
2018-11-26T21:42:41.710Z,26.20
2018-11-26T21:45:14.359Z,29.93
2018-11-26T21:47:42.931Z,18.13
2018-11-26T21:50:12.793Z,19.53
2018-11-26T21:52:41.435Z,15.77
2018-11-26T21:55:15.522Z,21.50
2018-11-26T21:57:43.833Z,19.63
2018-11-26T22:00:16.756Z,20.00
2018-11-26T22:02:45.904Z,20.00
2018-11-26T22:05:14.425Z,23.20
2018-11-26T22:07:43.013Z,22.57
2018-11-26T22:10:13.565Z,21.37
2018-11-26T22:12:42.842Z,19.37
2018-11-26T22:15:12.714Z,20.50
2018-11-26T22:17:41.511Z,22.53
2018-11-26T22:20:19.137Z,21.37
2018-11-26T22:22:47.637Z,18.40
2018-11-26T22:25:16.091Z,18.70
2018-11-26T22:27:44.647Z,15.47
2018-11-26T22:30:16.408Z,17.47
2018-11-26T22:32:44.927Z,21.83
2018-11-26T22:35:14.083Z,23.80
2018-11-26T22:37:42.646Z,23.40
2018-11-26T22:40:14.148Z,15.30
2018-11-26T22:42:43.345Z,16.03
2018-11-26T22:45:15.745Z,19.30
2018-11-26T22:47:45.890Z,16.70
2018-11-26T22:50:14.935Z,15.60
2018-11-26T22:52:43.549Z,13.47
2018-11-26T22:55:14.019Z,20.17
2018-11-26T22:57:43.035Z,24.23
2018-11-26T23:00:23.017Z,20.80
2018-11-26T23:02:52.456Z,17.97
2018-11-26T23:05:20.923Z,24.00
2018-11-26T23:07:49.455Z,20.90
2018-11-26T23:10:17.951Z,17.87
2018-11-26T23:12:46.404Z,16.03
2018-11-26T23:15:15.394Z,14.87
2018-11-26T23:17:44.405Z,21.83
2018-11-26T23:20:15.424Z,16.50
2018-11-26T23:22:43.907Z,17.07
2018-11-26T23:25:15.591Z,14.70
2018-11-26T23:27:44.199Z,14.43
2018-11-26T23:30:24.597Z,16.53
2018-11-26T23:32:58.007Z,19.20
2018-11-26T23:35:27.426Z,16.13
2018-11-26T23:37:55.880Z,22.27
2018-11-26T23:40:24.456Z,18.10
2018-11-26T23:42:53.001Z,14.87
2018-11-26T23:45:22.684Z,15.40
2018-11-26T23:47:51.236Z,17.57
2018-11-26T23:50:20.004Z,21.43
2018-11-26T23:52:48.591Z,18.23
2018-11-26T23:55:19.019Z,20.30
2018-11-26T23:57:47.537Z,16.07
